Yaak, Montana
Current Conditions -  °F | °C
As of 8:55 PM on Wednesday 22 Oct 2014 (Local Time) from K65S Reporting Station
Overcast Overcast  
Wind Chill: 46°   Ceiling: 5000
Heat Index: 46°   Visibility: 7mi
Dew Point: 46°   Wind: 0mph
Humidity: 100%   Direction: NA
Pressure: 29.81"   Gusts: NA
Location:  48.7903°N, 115.78°W
Report Text: K65S 230255Z AUTO 00000KT 7SM OVC050 08/08 A2981 RMK AO2 P0002
Loading
Personal Weather Stations






























Interactive Weather Map
Tropical Storm Tracking
New forecast layout! Learn more

10-Day Weather Forecast

Advertisements
Track Severe Weather on mobile